Overijse, Belgium
Current Conditions -  °F | °C
As of 7:50 AM on Monday 24 Nov 2014 (Local Time) from EBBR Reporting Station
Few Clouds Few Clouds  
Wind Chill: 41°   Ceiling: Unl
Heat Index: 41°   Visibility: 6mi
Dew Point: 37°   Wind: 1mph
Humidity: 87%   Direction: NA
Pressure: 30.24"   Gusts: NA
Location:  50.77°N, 4.53°E
Report Text: EBBR 240650Z VRB01KT 9999 FEW030 05/03 Q1024 NOSIG
Loading
Personal Weather Stations






























Interactive Weather Map New forecast layout! Learn more

10-Day Weather Forecast

Advertisements
Track Severe Weather on mobile